Detall de PIREP

Printer-friendly versionPDF version

[2015/01/03 09:15:00]
Flight IATA:CT1004
Pilot Number:012
Company ICAO:CAT
Aircraft Type:F70/A
PAX:79
Aircraft Registration:PFJ
Departing Airport: LOWI
Destination Airport: LIEA
Alternate Airport:LIEO
Online: VATSIM
Route:BRENO UM726 BZO UT897 IDKUX UQ984 VOG UM858 TORTU UN851 OKBON UL978 BEBEV UM733 AJO UM194 REVDO
Flight Level:F330
No Slew and time accel
No pause
Crash detect
Detect pilot in Cockpit between each 30 and 45 minutes
09:15 Zero fuel Weight: 71097 Lbs, Fuel Weight: 10884 Lbs
09:15 VATSIM:LOWI 030850Z VRB01KT 3000 R08/P1500N BR SCT002 BKN010 01/01 Q1031 R08/19//95 TEMPO 2000
09:15 VATSIM:LIEA 030850Z 27007KT 240V320 9999 BKN026 15/10 Q1032
09:15 X-MAS CHARTER
09:18 Parking Brakes off
09:25 Take-off
09:25 Take off Weight: 81542 Lbs
09:25 Wind: 357º @ 001 Knots Heading: 261º
09:25 POS N47º 15´ 32´´ E011º 20´ 01´´
09:25 Gear Up: 158 Knots
09:39 TOC
09:39 Fuel Weight: 8613 Lb
09:40 Wind:317º@060 Knots Heading: 219º Ground Speed: 375 Knots Altitude 33428 ft
09:55 Wind:324º@045 Knots Heading: 236º Ground Speed: 424 Knots Altitude 33402 ft
10:10 Wind:335º@031 Knots Heading: 187º Ground Speed: 454 Knots Altitude 33444 ft
10:21 TOD
10:21 Fuel Weight: 5489 Lb
10:25 Wind:010º@017 Knots Heading: 188º Ground Speed: 430 Knots Altitude 25501 ft
10:32 Flaps:1 at 243 Knots
10:32 Flaps:2 at 225 Knots
10:34 Flaps:3 at 175 Knots
10:34 Gear Down: 176 Knots
10:36 Flaps:4 at 137 Knots
10:40 Wind:269º@007 Knots Heading: 207º Ground Speed: 118 Knots Altitude 557 ft
10:40 TouchDown:Rate -226 ft/min Speed: 110 Knots
10:41 Flaps:2 at 47 Knots
10:41 VATSIM:LIEA 031020Z 27007KT 240V300 9999 BKN026 15/10 Q1032
10:41 Land
10:41 Wind:269º@007 Knots
10:41 Heading: 205º
10:41 Flight Duration: 01:16
10:41 Landing Weight: 75829 Lbs
10:41 POS N40º 37´ 57´´ E008º 17´ 27´´
10:44 Parking brakes on
10:44 Block to Block Duration: 01:26
10:44 Final Fuel: 4596 Lbls
10:44 Spent Fuel: 6287 Lbls
10:44 Flight Length: 478 NM
10:44 TOD Land Length: 92 NM

Exportar CSV

Powered by Drupal - Modified by Danger4k